• Join FlightAware (Why Join?)
  • Login
  • US Flag 
02:37PM EDT


 

Airport Tracker/Info


-or-


 

Live Flight TrackerFlight Track Log ✈ BJS542 ✈ 14-Aug-2013 ✈ KORD - KTYQ

Flight Track Log - Related Links

Times and Time Zones

All times are in EDT time to prevent confusion due to time zone crossing. See the BJS542 flight status page for this flight to view local times or setup timezone preferences in your user account.

Time Position Orientation Groundspeed Altitude Reporting Facility
EDT Latitude Longitude Course Direction KTS MPH feet Rate Location/Type
06:40PM 41.9167 -87.9000 155° Southeast 228 262 3,200  Level Chicago TRACON
06:41PM 41.8203 -87.8300 152° Southeast 267 307 8,800 3,600 Climbing Chicago Center
06:42PM 41.7292 -87.7697 154° Southeast 303 349 12,900 1,980 Climbing Chicago Center
06:43PM 41.6397 -87.7136 155° Southeast 357 411 13,000  Climbing Chicago Center
06:44PM 41.5453 -87.6558 155° Southeast 371 427 13,000  Level Chicago Center
06:45PM 41.6555 -87.7076 155° Southeast  Level FlightAware Approximate
06:45PM 41.4506 -87.6017 157° South 369 425 13,000  Level Chicago Center
06:46PM 41.3553 -87.5472 157° South 370 426 13,000  Level Chicago Center
06:47PM 41.2600 -87.4914 156° South 372 428 13,000  Level Chicago Center
06:49PM 41.1464 -87.4261 157° South 372 428 13,000  Level Chicago Center
06:50PM 41.0514 -87.3731 157° South 371 427 13,000  Level Chicago Center
06:51PM 40.9558 -87.3197 157° South 373 429 13,000  Level Chicago Center
06:52PM 40.8611 -87.2658 157° South 371 427 13,000  Level Chicago Center
06:53PM 40.7658 -87.2119 157° South 374 430 13,000  Level Chicago Center
06:54PM 40.6514 -87.1481 157° South 373 429 13,000  Level Chicago Center
06:55PM 40.5567 -87.0939 157° South 371 427 13,000  Level Chicago Center
06:56PM 40.4556 -87.0381 157° South 373 429 13,000  Level Chicago Center
06:57PM 40.3600 -86.9858 157° South 374 430 13,000  Level Chicago Center
06:58PM 40.2658 -86.9319 156° South 370 426 13,000 -420 Level Chicago Center
06:59PM 40.1711 -86.8775 156° South 373 429 12,200 -1,140 Descending Chicago Center
07:00PM 40.1144 -86.7983 133° Southeast 372 428 11,000 -1,740 Descending Indianapolis Center
07:01PM 40.0942 -86.6850 103° East 330 380 9,200 -1,680 Descending Indianapolis Center
07:02PM 40.0792 -86.5814 101° East 300 345 7,600 -1,800 Descending Indianapolis Center
07:03PM 40.0650 -86.4831 101° East 286 329 5,600 -1,500 Descending Indianapolis Center
07:04PM 40.0486 -86.3733 101° East 280 322 4,600 -1,020 Descending Indianapolis Center